sensor_id;sensor_type;location;lat;lon;timestamp;P1;durP1;ratioP1;P2;durP2;ratioP2
80584;SDS011;70137;56.482;9.154;2023-07-29T00:00:31;5.43;;;3.25;;
80584;SDS011;70137;56.482;9.154;2023-07-29T00:02:56;6.82;;;3.72;;
80584;SDS011;70137;56.482;9.154;2023-07-29T00:05:22;6.75;;;3.67;;
80584;SDS011;70137;56.482;9.154;2023-07-29T00:07:47;6.75;;;3.42;;
80584;SDS011;70137;56.482;9.154;2023-07-29T00:10:12;6.43;;;3.80;;
80584;SDS011;70137;56.482;9.154;2023-07-29T00:12:37;7.50;;;3.58;;
80584;SDS011;70137;56.482;9.154;2023-07-29T00:15:03;6.80;;;3.75;;
80584;SDS011;70137;56.482;9.154;2023-07-29T00:17:28;6.75;;;3.80;;
80584;SDS011;70137;56.482;9.154;2023-07-29T00:19:55;6.10;;;3.38;;
80584;SDS011;70137;56.482;9.154;2023-07-29T00:22:23;8.68;;;3.80;;
80584;SDS011;70137;56.482;9.154;2023-07-29T00:24:52;6.30;;;3.67;;
80584;SDS011;70137;56.482;9.154;2023-07-29T00:27:22;8.10;;;3.00;;
80584;SDS011;70137;56.482;9.154;2023-07-29T00:29:47;7.88;;;3.10;;
80584;SDS011;70137;56.482;9.154;2023-07-29T00:32:12;4.72;;;3.10;;
80584;SDS011;70137;56.482;9.154;2023-07-29T00:34:38;5.80;;;3.30;;
80584;SDS011;70137;56.482;9.154;2023-07-29T00:37:03;5.40;;;3.10;;
80584;SDS011;70137;56.482;9.154;2023-07-29T00:39:30;5.97;;;3.20;;
80584;SDS011;70137;56.482;9.154;2023-07-29T00:41:56;7.50;;;3.53;;
80584;SDS011;70137;56.482;9.154;2023-07-29T00:44:21;5.70;;;2.65;;
80584;SDS011;70137;56.482;9.154;2023-07-29T00:46:46;6.75;;;3.42;;
80584;SDS011;70137;56.482;9.154;2023-07-29T00:49:14;5.35;;;2.97;;
80584;SDS011;70137;56.482;9.154;2023-07-29T00:51:40;6.05;;;3.53;;
80584;SDS011;70137;56.482;9.154;2023-07-29T00:54:05;5.50;;;3.40;;
80584;SDS011;70137;56.482;9.154;2023-07-29T00:56:30;7.00;;;3.40;;
80584;SDS011;70137;56.482;9.154;2023-07-29T00:58:56;5.40;;;3.05;;
80584;SDS011;70137;56.482;9.154;2023-07-29T01:01:25;4.75;;;3.10;;
80584;SDS011;70137;56.482;9.154;2023-07-29T01:03:50;5.07;;;3.33;;
80584;SDS011;70137;56.482;9.154;2023-07-29T01:06:20;7.20;;;3.25;;
80584;SDS011;70137;56.482;9.154;2023-07-29T01:09:04;6.07;;;3.40;;
80584;SDS011;70137;56.482;9.154;2023-07-29T01:16:40;8.25;;;3.53;;
80584;SDS011;70137;56.482;9.154;2023-07-29T01:19:08;6.05;;;3.20;;
80584;SDS011;70137;56.482;9.154;2023-07-29T01:21:52;4.73;;;3.10;;
80584;SDS011;70137;56.482;9.154;2023-07-29T01:24:19;3.67;;;2.90;;
80584;SDS011;70137;56.482;9.154;2023-07-29T01:26:45;8.00;;;4.07;;
80584;SDS011;70137;56.482;9.154;2023-07-29T01:29:10;6.38;;;3.90;;
80584;SDS011;70137;56.482;9.154;2023-07-29T01:31:38;9.25;;;4.25;;
80584;SDS011;70137;56.482;9.154;2023-07-29T01:34:09;4.95;;;3.35;;
80584;SDS011;70137;56.482;9.154;2023-07-29T01:36:41;7.40;;;4.40;;
80584;SDS011;70137;56.482;9.154;2023-07-29T01:39:10;4.40;;;3.55;;
80584;SDS011;70137;56.482;9.154;2023-07-29T01:41:37;5.90;;;4.28;;
80584;SDS011;70137;56.482;9.154;2023-07-29T01:44:03;8.10;;;4.07;;
80584;SDS011;70137;56.482;9.154;2023-07-29T01:46:32;9.27;;;4.30;;
80584;SDS011;70137;56.482;9.154;2023-07-29T01:48:58;8.13;;;4.20;;
80584;SDS011;70137;56.482;9.154;2023-07-29T01:51:24;7.20;;;4.40;;
80584;SDS011;70137;56.482;9.154;2023-07-29T01:53:49;5.43;;;3.88;;
80584;SDS011;70137;56.482;9.154;2023-07-29T01:56:14;6.70;;;4.45;;
80584;SDS011;70137;56.482;9.154;2023-07-29T01:58:39;7.10;;;4.18;;
80584;SDS011;70137;56.482;9.154;2023-07-29T02:01:05;6.78;;;4.20;;
80584;SDS011;70137;56.482;9.154;2023-07-29T02:03:30;8.55;;;4.90;;
80584;SDS011;70137;56.482;9.154;2023-07-29T02:05:55;7.25;;;4.97;;
80584;SDS011;70137;56.482;9.154;2023-07-29T02:08:21;7.95;;;5.20;;
80584;SDS011;70137;56.482;9.154;2023-07-29T02:10:46;8.95;;;5.00;;
80584;SDS011;70137;56.482;9.154;2023-07-29T02:13:14;7.65;;;5.10;;
80584;SDS011;70137;56.482;9.154;2023-07-29T02:15:40;6.60;;;4.82;;
80584;SDS011;70137;56.482;9.154;2023-07-29T02:18:05;7.60;;;5.43;;
80584;SDS011;70137;56.482;9.154;2023-07-29T02:20:32;9.30;;;5.13;;
80584;SDS011;70137;56.482;9.154;2023-07-29T02:22:57;6.47;;;4.93;;
80584;SDS011;70137;56.482;9.154;2023-07-29T02:25:22;7.65;;;5.20;;
80584;SDS011;70137;56.482;9.154;2023-07-29T02:27:48;9.68;;;5.03;;
80584;SDS011;70137;56.482;9.154;2023-07-29T02:30:13;7.75;;;5.50;;
80584;SDS011;70137;56.482;9.154;2023-07-29T02:32:39;7.45;;;5.55;;
80584;SDS011;70137;56.482;9.154;2023-07-29T02:35:04;9.60;;;5.40;;
80584;SDS011;70137;56.482;9.154;2023-07-29T02:37:30;8.70;;;4.82;;
80584;SDS011;70137;56.482;9.154;2023-07-29T02:39:55;7.78;;;5.40;;
80584;SDS011;70137;56.482;9.154;2023-07-29T02:42:21;9.25;;;5.28;;
80584;SDS011;70137;56.482;9.154;2023-07-29T02:44:46;10.55;;;5.07;;
80584;SDS011;70137;56.482;9.154;2023-07-29T02:47:11;14.25;;;6.25;;
80584;SDS011;70137;56.482;9.154;2023-07-29T02:49:37;11.82;;;5.60;;
80584;SDS011;70137;56.482;9.154;2023-07-29T02:52:02;9.55;;;5.63;;
80584;SDS011;70137;56.482;9.154;2023-07-29T02:54:27;8.60;;;5.20;;
80584;SDS011;70137;56.482;9.154;2023-07-29T02:56:53;9.32;;;5.28;;
80584;SDS011;70137;56.482;9.154;2023-07-29T02:59:18;9.48;;;4.88;;
80584;SDS011;70137;56.482;9.154;2023-07-29T03:01:43;7.93;;;5.20;;
80584;SDS011;70137;56.482;9.154;2023-07-29T03:04:09;7.85;;;5.22;;
80584;SDS011;70137;56.482;9.154;2023-07-29T03:06:34;7.10;;;5.20;;
80584;SDS011;70137;56.482;9.154;2023-07-29T03:08:59;8.60;;;5.78;;
80584;SDS011;70137;56.482;9.154;2023-07-29T03:11:25;9.32;;;5.43;;
80584;SDS011;70137;56.482;9.154;2023-07-29T03:13:50;10.40;;;5.32;;
80584;SDS011;70137;56.482;9.154;2023-07-29T03:16:16;8.30;;;5.78;;
80584;SDS011;70137;56.482;9.154;2023-07-29T03:18:43;7.85;;;5.63;;
80584;SDS011;70137;56.482;9.154;2023-07-29T03:21:09;8.95;;;6.60;;
80584;SDS011;70137;56.482;9.154;2023-07-29T03:23:35;8.90;;;6.47;;
80584;SDS011;70137;56.482;9.154;2023-07-29T03:26:02;12.15;;;6.88;;
80584;SDS011;70137;56.482;9.154;2023-07-29T03:28:29;8.35;;;6.03;;
80584;SDS011;70137;56.482;9.154;2023-07-29T03:30:57;11.75;;;6.10;;
80584;SDS011;70137;56.482;9.154;2023-07-29T03:33:23;11.27;;;5.20;;
80584;SDS011;70137;56.482;9.154;2023-07-29T03:35:49;7.60;;;5.22;;
80584;SDS011;70137;56.482;9.154;2023-07-29T03:38:15;8.10;;;4.97;;
80584;SDS011;70137;56.482;9.154;2023-07-29T03:40:40;9.98;;;5.20;;
80584;SDS011;70137;56.482;9.154;2023-07-29T03:43:07;7.15;;;5.13;;
80584;SDS011;70137;56.482;9.154;2023-07-29T03:45:33;7.63;;;4.93;;
80584;SDS011;70137;56.482;9.154;2023-07-29T03:47:59;8.73;;;5.30;;
80584;SDS011;70137;56.482;9.154;2023-07-29T03:50:24;7.30;;;5.63;;
80584;SDS011;70137;56.482;9.154;2023-07-29T03:52:50;6.70;;;5.53;;
80584;SDS011;70137;56.482;9.154;2023-07-29T03:55:15;7.85;;;5.60;;
80584;SDS011;70137;56.482;9.154;2023-07-29T03:57:41;10.30;;;6.45;;
80584;SDS011;70137;56.482;9.154;2023-07-29T04:00:06;10.68;;;7.35;;
80584;SDS011;70137;56.482;9.154;2023-07-29T04:02:34;10.75;;;7.85;;
80584;SDS011;70137;56.482;9.154;2023-07-29T04:05:02;10.98;;;8.25;;
80584;SDS011;70137;56.482;9.154;2023-07-29T04:07:28;11.43;;;8.20;;
80584;SDS011;70137;56.482;9.154;2023-07-29T04:09:53;12.80;;;8.05;;
80584;SDS011;70137;56.482;9.154;2023-07-29T04:12:19;12.02;;;7.93;;
80584;SDS011;70137;56.482;9.154;2023-07-29T04:14:46;10.98;;;7.68;;
80584;SDS011;70137;56.482;9.154;2023-07-29T04:17:11;10.70;;;7.95;;
80584;SDS011;70137;56.482;9.154;2023-07-29T04:19:37;13.20;;;8.60;;
80584;SDS011;70137;56.482;9.154;2023-07-29T04:22:02;11.80;;;8.55;;
80584;SDS011;70137;56.482;9.154;2023-07-29T04:24:28;13.23;;;8.32;;
80584;SDS011;70137;56.482;9.154;2023-07-29T04:26:53;10.93;;;8.27;;
80584;SDS011;70137;56.482;9.154;2023-07-29T04:29:18;12.02;;;7.97;;
80584;SDS011;70137;56.482;9.154;2023-07-29T04:31:44;10.73;;;7.78;;
80584;SDS011;70137;56.482;9.154;2023-07-29T04:34:09;11.85;;;8.05;;
80584;SDS011;70137;56.482;9.154;2023-07-29T04:36:34;10.48;;;8.15;;
80584;SDS011;70137;56.482;9.154;2023-07-29T04:39:00;10.55;;;7.65;;
80584;SDS011;70137;56.482;9.154;2023-07-29T04:41:25;10.82;;;7.57;;
80584;SDS011;70137;56.482;9.154;2023-07-29T04:43:50;14.98;;;8.20;;
80584;SDS011;70137;56.482;9.154;2023-07-29T04:46:16;11.63;;;7.90;;
80584;SDS011;70137;56.482;9.154;2023-07-29T04:48:41;11.77;;;8.45;;
80584;SDS011;70137;56.482;9.154;2023-07-29T04:51:06;12.25;;;8.13;;
80584;SDS011;70137;56.482;9.154;2023-07-29T04:53:32;12.82;;;7.63;;
80584;SDS011;70137;56.482;9.154;2023-07-29T04:55:57;9.88;;;7.70;;
80584;SDS011;70137;56.482;9.154;2023-07-29T04:58:22;10.23;;;8.05;;
80584;SDS011;70137;56.482;9.154;2023-07-29T05:00:48;11.82;;;8.02;;
80584;SDS011;70137;56.482;9.154;2023-07-29T05:03:13;12.63;;;7.47;;
80584;SDS011;70137;56.482;9.154;2023-07-29T05:05:38;11.10;;;7.55;;
80584;SDS011;70137;56.482;9.154;2023-07-29T05:08:04;9.88;;;7.78;;
80584;SDS011;70137;56.482;9.154;2023-07-29T05:10:29;10.93;;;7.03;;
80584;SDS011;70137;56.482;9.154;2023-07-29T05:12:54;11.30;;;7.65;;
80584;SDS011;70137;56.482;9.154;2023-07-29T05:15:19;9.60;;;6.70;;
80584;SDS011;70137;56.482;9.154;2023-07-29T05:17:45;8.85;;;6.60;;
80584;SDS011;70137;56.482;9.154;2023-07-29T05:20:10;10.15;;;7.35;;
80584;SDS011;70137;56.482;9.154;2023-07-29T05:22:36;10.15;;;7.22;;
80584;SDS011;70137;56.482;9.154;2023-07-29T05:25:01;10.02;;;6.90;;
80584;SDS011;70137;56.482;9.154;2023-07-29T05:27:27;11.35;;;6.70;;
80584;SDS011;70137;56.482;9.154;2023-07-29T05:29:52;9.75;;;6.38;;
80584;SDS011;70137;56.482;9.154;2023-07-29T05:32:17;8.73;;;6.80;;
80584;SDS011;70137;56.482;9.154;2023-07-29T05:34:43;8.98;;;6.95;;
80584;SDS011;70137;56.482;9.154;2023-07-29T05:37:08;8.38;;;6.35;;
80584;SDS011;70137;56.482;9.154;2023-07-29T05:39:33;9.70;;;5.88;;
80584;SDS011;70137;56.482;9.154;2023-07-29T05:41:59;7.32;;;6.07;;
80584;SDS011;70137;56.482;9.154;2023-07-29T05:44:27;7.95;;;6.13;;
80584;SDS011;70137;56.482;9.154;2023-07-29T05:46:52;7.80;;;6.20;;
80584;SDS011;70137;56.482;9.154;2023-07-29T05:49:18;7.43;;;5.90;;
80584;SDS011;70137;56.482;9.154;2023-07-29T05:51:43;6.78;;;5.30;;
80584;SDS011;70137;56.482;9.154;2023-07-29T05:54:08;9.50;;;5.97;;
80584;SDS011;70137;56.482;9.154;2023-07-29T05:56:34;5.60;;;4.97;;
80584;SDS011;70137;56.482;9.154;2023-07-29T05:58:59;10.23;;;5.47;;
80584;SDS011;70137;56.482;9.154;2023-07-29T06:01:25;6.10;;;4.68;;
80584;SDS011;70137;56.482;9.154;2023-07-29T06:03:51;5.72;;;5.05;;
80584;SDS011;70137;56.482;9.154;2023-07-29T06:06:16;6.45;;;4.85;;
80584;SDS011;70137;56.482;9.154;2023-07-29T06:08:41;6.28;;;4.85;;
80584;SDS011;70137;56.482;9.154;2023-07-29T06:11:07;5.75;;;4.20;;
80584;SDS011;70137;56.482;9.154;2023-07-29T06:13:32;5.30;;;4.10;;
80584;SDS011;70137;56.482;9.154;2023-07-29T06:15:57;5.60;;;4.47;;
80584;SDS011;70137;56.482;9.154;2023-07-29T06:18:23;5.53;;;4.10;;
80584;SDS011;70137;56.482;9.154;2023-07-29T06:20:48;4.30;;;3.85;;
80584;SDS011;70137;56.482;9.154;2023-07-29T06:23:14;5.72;;;4.50;;
80584;SDS011;70137;56.482;9.154;2023-07-29T06:25:40;7.22;;;4.57;;
80584;SDS011;70137;56.482;9.154;2023-07-29T06:28:05;9.25;;;4.90;;
80584;SDS011;70137;56.482;9.154;2023-07-29T06:30:30;5.60;;;4.35;;
80584;SDS011;70137;56.482;9.154;2023-07-29T06:32:56;4.45;;;3.85;;
80584;SDS011;70137;56.482;9.154;2023-07-29T06:35:21;4.57;;;4.18;;
80584;SDS011;70137;56.482;9.154;2023-07-29T06:37:46;3.95;;;3.60;;
80584;SDS011;70137;56.482;9.154;2023-07-29T06:40:12;5.95;;;3.70;;
80584;SDS011;70137;56.482;9.154;2023-07-29T06:42:37;3.22;;;2.78;;
80584;SDS011;70137;56.482;9.154;2023-07-29T06:45:03;4.95;;;3.17;;
80584;SDS011;70137;56.482;9.154;2023-07-29T06:47:30;3.33;;;2.67;;
80584;SDS011;70137;56.482;9.154;2023-07-29T06:49:55;3.40;;;2.70;;
80584;SDS011;70137;56.482;9.154;2023-07-29T06:52:21;4.13;;;3.20;;
80584;SDS011;70137;56.482;9.154;2023-07-29T06:54:46;4.35;;;3.78;;
80584;SDS011;70137;56.482;9.154;2023-07-29T06:57:11;5.32;;;3.35;;
80584;SDS011;70137;56.482;9.154;2023-07-29T06:59:36;4.85;;;3.17;;
80584;SDS011;70137;56.482;9.154;2023-07-29T07:02:02;3.92;;;2.90;;
80584;SDS011;70137;56.482;9.154;2023-07-29T07:04:27;3.40;;;2.28;;
80584;SDS011;70137;56.482;9.154;2023-07-29T07:06:53;3.63;;;2.63;;
80584;SDS011;70137;56.482;9.154;2023-07-29T07:09:19;2.97;;;2.67;;
80584;SDS011;70137;56.482;9.154;2023-07-29T07:11:44;3.60;;;2.30;;
80584;SDS011;70137;56.482;9.154;2023-07-29T07:14:09;3.75;;;3.03;;
80584;SDS011;70137;56.482;9.154;2023-07-29T07:16:35;2.60;;;2.40;;
80584;SDS011;70137;56.482;9.154;2023-07-29T07:19:01;3.85;;;2.80;;
80584;SDS011;70137;56.482;9.154;2023-07-29T07:21:27;4.50;;;2.72;;
80584;SDS011;70137;56.482;9.154;2023-07-29T07:23:52;3.83;;;2.65;;
80584;SDS011;70137;56.482;9.154;2023-07-29T07:26:18;3.20;;;2.50;;
80584;SDS011;70137;56.482;9.154;2023-07-29T07:28:43;7.30;;;2.80;;
80584;SDS011;70137;56.482;9.154;2023-07-29T07:31:08;4.78;;;2.88;;
80584;SDS011;70137;56.482;9.154;2023-07-29T07:33:34;4.38;;;2.97;;
80584;SDS011;70137;56.482;9.154;2023-07-29T07:35:59;3.22;;;2.92;;
80584;SDS011;70137;56.482;9.154;2023-07-29T07:38:24;5.20;;;3.17;;
80584;SDS011;70137;56.482;9.154;2023-07-29T07:40:56;6.78;;;3.42;;
80584;SDS011;70137;56.482;9.154;2023-07-29T07:43:21;3.58;;;3.10;;
80584;SDS011;70137;56.482;9.154;2023-07-29T07:45:47;5.30;;;3.13;;
80584;SDS011;70137;56.482;9.154;2023-07-29T07:48:12;4.32;;;2.92;;
80584;SDS011;70137;56.482;9.154;2023-07-29T07:50:38;4.15;;;2.78;;
80584;SDS011;70137;56.482;9.154;2023-07-29T07:53:04;3.30;;;3.00;;
80584;SDS011;70137;56.482;9.154;2023-07-29T07:55:29;6.15;;;3.35;;
80584;SDS011;70137;56.482;9.154;2023-07-29T07:57:55;3.78;;;3.00;;
80584;SDS011;70137;56.482;9.154;2023-07-29T08:00:20;3.67;;;3.03;;
80584;SDS011;70137;56.482;9.154;2023-07-29T08:02:45;3.20;;;2.90;;
80584;SDS011;70137;56.482;9.154;2023-07-29T08:05:11;4.13;;;3.28;;
80584;SDS011;70137;56.482;9.154;2023-07-29T08:07:36;4.97;;;3.53;;
80584;SDS011;70137;56.482;9.154;2023-07-29T08:10:01;6.25;;;3.30;;
80584;SDS011;70137;56.482;9.154;2023-07-29T08:12:27;5.22;;;3.40;;
80584;SDS011;70137;56.482;9.154;2023-07-29T08:14:52;5.43;;;3.47;;
80584;SDS011;70137;56.482;9.154;2023-07-29T08:17:17;3.28;;;2.88;;
80584;SDS011;70137;56.482;9.154;2023-07-29T08:19:43;5.75;;;3.28;;
80584;SDS011;70137;56.482;9.154;2023-07-29T08:22:08;3.63;;;3.15;;
80584;SDS011;70137;56.482;9.154;2023-07-29T08:24:33;3.83;;;3.03;;
80584;SDS011;70137;56.482;9.154;2023-07-29T08:27:02;4.10;;;3.10;;
80584;SDS011;70137;56.482;9.154;2023-07-29T08:29:27;3.58;;;3.00;;
80584;SDS011;70137;56.482;9.154;2023-07-29T08:31:53;4.05;;;3.08;;
80584;SDS011;70137;56.482;9.154;2023-07-29T08:34:20;4.57;;;3.20;;
80584;SDS011;70137;56.482;9.154;2023-07-29T08:36:45;4.93;;;3.38;;
80584;SDS011;70137;56.482;9.154;2023-07-29T08:39:10;3.58;;;3.28;;
80584;SDS011;70137;56.482;9.154;2023-07-29T08:41:54;5.10;;;2.97;;
80584;SDS011;70137;56.482;9.154;2023-07-29T08:44:22;3.17;;;2.88;;
80584;SDS011;70137;56.482;9.154;2023-07-29T08:46:49;3.90;;;2.97;;
80584;SDS011;70137;56.482;9.154;2023-07-29T08:49:15;3.33;;;3.03;;
80584;SDS011;70137;56.482;9.154;2023-07-29T08:51:44;2.75;;;2.53;;
80584;SDS011;70137;56.482;9.154;2023-07-29T08:54:11;3.40;;;3.05;;
80584;SDS011;70137;56.482;9.154;2023-07-29T08:56:37;3.53;;;3.20;;
80584;SDS011;70137;56.482;9.154;2023-07-29T08:59:03;3.42;;;3.13;;
80584;SDS011;70137;56.482;9.154;2023-07-29T09:01:30;2.90;;;2.70;;
80584;SDS011;70137;56.482;9.154;2023-07-29T09:03:55;3.75;;;2.80;;
80584;SDS011;70137;56.482;9.154;2023-07-29T09:06:21;5.28;;;2.83;;
80584;SDS011;70137;56.482;9.154;2023-07-29T09:08:48;2.95;;;2.70;;
80584;SDS011;70137;56.482;9.154;2023-07-29T09:11:15;3.30;;;2.50;;
80584;SDS011;70137;56.482;9.154;2023-07-29T09:13:42;4.07;;;2.70;;
80584;SDS011;70137;56.482;9.154;2023-07-29T09:16:07;3.30;;;2.85;;
80584;SDS011;70137;56.482;9.154;2023-07-29T09:18:34;2.80;;;2.60;;
80584;SDS011;70137;56.482;9.154;2023-07-29T09:20:59;3.17;;;2.30;;
80584;SDS011;70137;56.482;9.154;2023-07-29T09:23:26;2.63;;;2.08;;
80584;SDS011;70137;56.482;9.154;2023-07-29T09:25:52;3.00;;;2.70;;
80584;SDS011;70137;56.482;9.154;2023-07-29T09:28:25;2.63;;;2.40;;
80584;SDS011;70137;56.482;9.154;2023-07-29T09:30:52;3.67;;;2.70;;
80584;SDS011;70137;56.482;9.154;2023-07-29T09:33:18;3.00;;;2.47;;
80584;SDS011;70137;56.482;9.154;2023-07-29T09:35:44;3.00;;;2.70;;
80584;SDS011;70137;56.482;9.154;2023-07-29T09:38:13;2.88;;;2.65;;
80584;SDS011;70137;56.482;9.154;2023-07-29T09:40:40;2.60;;;2.40;;
80584;SDS011;70137;56.482;9.154;2023-07-29T09:43:06;3.83;;;2.45;;
80584;SDS011;70137;56.482;9.154;2023-07-29T09:45:35;3.53;;;2.80;;
80584;SDS011;70137;56.482;9.154;2023-07-29T09:48:01;2.90;;;2.60;;
80584;SDS011;70137;56.482;9.154;2023-07-29T09:50:28;3.08;;;2.10;;
80584;SDS011;70137;56.482;9.154;2023-07-29T09:52:54;2.88;;;2.67;;
80584;SDS011;70137;56.482;9.154;2023-07-29T09:55:21;3.67;;;2.45;;
80584;SDS011;70137;56.482;9.154;2023-07-29T09:57:48;2.67;;;2.47;;
80584;SDS011;70137;56.482;9.154;2023-07-29T10:00:18;2.95;;;2.65;;
80584;SDS011;70137;56.482;9.154;2023-07-29T10:02:44;2.88;;;2.45;;
80584;SDS011;70137;56.482;9.154;2023-07-29T10:05:10;2.22;;;2.03;;
80584;SDS011;70137;56.482;9.154;2023-07-29T10:07:39;2.15;;;1.95;;
80584;SDS011;70137;56.482;9.154;2023-07-29T10:10:05;1.80;;;1.70;;
80584;SDS011;70137;56.482;9.154;2023-07-29T10:12:32;1.92;;;1.83;;
80584;SDS011;70137;56.482;9.154;2023-07-29T10:15:07;1.75;;;1.50;;
80584;SDS011;70137;56.482;9.154;2023-07-29T10:17:33;1.30;;;1.20;;
80584;SDS011;70137;56.482;9.154;2023-07-29T10:20:00;1.30;;;1.20;;
80584;SDS011;70137;56.482;9.154;2023-07-29T10:22:28;1.40;;;1.30;;
80584;SDS011;70137;56.482;9.154;2023-07-29T10:25:00;1.70;;;1.55;;
80584;SDS011;70137;56.482;9.154;2023-07-29T10:27:29;1.77;;;1.17;;
80584;SDS011;70137;56.482;9.154;2023-07-29T10:29:58;2.85;;;1.33;;
80584;SDS011;70137;56.482;9.154;2023-07-29T10:32:25;1.80;;;1.27;;
80584;SDS011;70137;56.482;9.154;2023-07-29T10:34:51;2.63;;;1.30;;
80584;SDS011;70137;56.482;9.154;2023-07-29T10:37:17;2.00;;;1.40;;
80584;SDS011;70137;56.482;9.154;2023-07-29T10:39:51;1.35;;;1.25;;
80584;SDS011;70137;56.482;9.154;2023-07-29T10:42:18;1.73;;;1.50;;
80584;SDS011;70137;56.482;9.154;2023-07-29T10:47:16;1.92;;;1.83;;
80584;SDS011;70137;56.482;9.154;2023-07-29T10:49:47;2.55;;;2.10;;
80584;SDS011;70137;56.482;9.154;2023-07-29T10:52:15;2.20;;;1.85;;
80584;SDS011;70137;56.482;9.154;2023-07-29T10:54:52;2.30;;;1.92;;
80584;SDS011;70137;56.482;9.154;2023-07-29T10:57:37;1.88;;;1.67;;
80584;SDS011;70137;56.482;9.154;2023-07-29T11:00:05;2.22;;;2.00;;
80584;SDS011;70137;56.482;9.154;2023-07-29T11:02:32;2.08;;;1.88;;
80584;SDS011;70137;56.482;9.154;2023-07-29T11:05:05;2.03;;;1.92;;
80584;SDS011;70137;56.482;9.154;2023-07-29T11:07:45;3.67;;;2.13;;
80584;SDS011;70137;56.482;9.154;2023-07-29T11:10:13;3.45;;;2.03;;
80584;SDS011;70137;56.482;9.154;2023-07-29T11:15:26;2.22;;;2.03;;
80584;SDS011;70137;56.482;9.154;2023-07-29T11:17:53;1.70;;;1.60;;
80584;SDS011;70137;56.482;9.154;2023-07-29T11:20:21;1.65;;;1.55;;
80584;SDS011;70137;56.482;9.154;2023-07-29T11:22:48;2.20;;;1.73;;
80584;SDS011;70137;56.482;9.154;2023-07-29T11:25:14;2.33;;;1.90;;
80584;SDS011;70137;56.482;9.154;2023-07-29T11:27:41;1.65;;;1.55;;
80584;SDS011;70137;56.482;9.154;2023-07-29T11:30:08;3.05;;;1.95;;
80584;SDS011;70137;56.482;9.154;2023-07-29T11:32:39;2.85;;;1.98;;
80584;SDS011;70137;56.482;9.154;2023-07-29T11:35:10;1.98;;;1.88;;
80584;SDS011;70137;56.482;9.154;2023-07-29T11:37:46;1.55;;;1.45;;
80584;SDS011;70137;56.482;9.154;2023-07-29T11:40:15;2.50;;;2.08;;
80584;SDS011;70137;56.482;9.154;2023-07-29T11:42:42;2.10;;;1.90;;
80584;SDS011;70137;56.482;9.154;2023-07-29T11:45:08;3.00;;;1.83;;
80584;SDS011;70137;56.482;9.154;2023-07-29T11:47:34;1.77;;;1.60;;
80584;SDS011;70137;56.482;9.154;2023-07-29T11:50:04;1.65;;;1.55;;
80584;SDS011;70137;56.482;9.154;2023-07-29T11:52:31;1.65;;;1.55;;
80584;SDS011;70137;56.482;9.154;2023-07-29T11:54:57;2.00;;;1.77;;
80584;SDS011;70137;56.482;9.154;2023-07-29T11:57:23;1.90;;;1.60;;
80584;SDS011;70137;56.482;9.154;2023-07-29T11:59:49;1.50;;;1.40;;
80584;SDS011;70137;56.482;9.154;2023-07-29T12:02:15;1.50;;;1.40;;
80584;SDS011;70137;56.482;9.154;2023-07-29T12:04:42;2.35;;;1.30;;
80584;SDS011;70137;56.482;9.154;2023-07-29T12:07:09;1.38;;;1.27;;
80584;SDS011;70137;56.482;9.154;2023-07-29T12:09:35;3.55;;;1.40;;
80584;SDS011;70137;56.482;9.154;2023-07-29T12:12:02;1.67;;;1.45;;
80584;SDS011;70137;56.482;9.154;2023-07-29T12:14:28;2.35;;;1.45;;
80584;SDS011;70137;56.482;9.154;2023-07-29T12:16:54;1.83;;;1.50;;
80584;SDS011;70137;56.482;9.154;2023-07-29T12:19:20;2.13;;;1.92;;
80584;SDS011;70137;56.482;9.154;2023-07-29T12:21:47;1.90;;;1.70;;
80584;SDS011;70137;56.482;9.154;2023-07-29T12:24:13;1.63;;;1.52;;
80584;SDS011;70137;56.482;9.154;2023-07-29T12:26:39;1.70;;;1.60;;
80584;SDS011;70137;56.482;9.154;2023-07-29T12:29:12;1.55;;;1.45;;
80584;SDS011;70137;56.482;9.154;2023-07-29T12:31:42;1.48;;;1.38;;
80584;SDS011;70137;56.482;9.154;2023-07-29T12:34:07;1.35;;;1.17;;
80584;SDS011;70137;56.482;9.154;2023-07-29T12:36:43;1.65;;;1.55;;
80584;SDS011;70137;56.482;9.154;2023-07-29T12:39:19;1.50;;;1.38;;
80584;SDS011;70137;56.482;9.154;2023-07-29T12:41:47;1.88;;;1.40;;
80584;SDS011;70137;56.482;9.154;2023-07-29T12:44:14;1.35;;;1.25;;
80584;SDS011;70137;56.482;9.154;2023-07-29T12:46:39;2.28;;;1.60;;
80584;SDS011;70137;56.482;9.154;2023-07-29T12:49:05;2.00;;;1.90;;
80584;SDS011;70137;56.482;9.154;2023-07-29T12:51:30;2.42;;;2.00;;
80584;SDS011;70137;56.482;9.154;2023-07-29T12:53:56;2.63;;;1.70;;
80584;SDS011;70137;56.482;9.154;2023-07-29T12:56:22;1.50;;;1.40;;
80584;SDS011;70137;56.482;9.154;2023-07-29T12:58:47;1.75;;;1.65;;
80584;SDS011;70137;56.482;9.154;2023-07-29T13:01:13;2.00;;;1.80;;
80584;SDS011;70137;56.482;9.154;2023-07-29T13:03:42;2.08;;;1.88;;
80584;SDS011;70137;56.482;9.154;2023-07-29T13:06:08;2.13;;;1.95;;
80584;SDS011;70137;56.482;9.154;2023-07-29T13:08:33;1.90;;;1.75;;
80584;SDS011;70137;56.482;9.154;2023-07-29T13:10:59;1.83;;;1.73;;
80584;SDS011;70137;56.482;9.154;2023-07-29T13:13:24;2.75;;;1.77;;
80584;SDS011;70137;56.482;9.154;2023-07-29T13:15:49;2.20;;;2.00;;
80584;SDS011;70137;56.482;9.154;2023-07-29T13:18:14;2.65;;;2.10;;
80584;SDS011;70137;56.482;9.154;2023-07-29T13:20:40;3.60;;;2.15;;
80584;SDS011;70137;56.482;9.154;2023-07-29T13:23:05;2.85;;;2.55;;
80584;SDS011;70137;56.482;9.154;2023-07-29T13:25:30;2.28;;;2.03;;
80584;SDS011;70137;56.482;9.154;2023-07-29T13:27:56;5.80;;;2.20;;
80584;SDS011;70137;56.482;9.154;2023-07-29T13:30:21;2.83;;;1.95;;
80584;SDS011;70137;56.482;9.154;2023-07-29T13:32:46;2.08;;;1.90;;
80584;SDS011;70137;56.482;9.154;2023-07-29T13:35:12;1.92;;;1.83;;
80584;SDS011;70137;56.482;9.154;2023-07-29T13:37:37;3.25;;;2.13;;
80584;SDS011;70137;56.482;9.154;2023-07-29T13:40:02;2.50;;;2.30;;
80584;SDS011;70137;56.482;9.154;2023-07-29T13:42:28;2.67;;;2.30;;
80584;SDS011;70137;56.482;9.154;2023-07-29T13:44:53;2.38;;;2.17;;
80584;SDS011;70137;56.482;9.154;2023-07-29T13:47:19;2.60;;;2.40;;
80584;SDS011;70137;56.482;9.154;2023-07-29T13:49:44;2.10;;;1.90;;
80584;SDS011;70137;56.482;9.154;2023-07-29T13:52:09;4.13;;;2.80;;
80584;SDS011;70137;56.482;9.154;2023-07-29T13:54:34;2.55;;;2.30;;
80584;SDS011;70137;56.482;9.154;2023-07-29T13:57:00;2.53;;;2.33;;
80584;SDS011;70137;56.482;9.154;2023-07-29T13:59:25;2.55;;;2.35;;
80584;SDS011;70137;56.482;9.154;2023-07-29T14:01:50;4.57;;;2.55;;
80584;SDS011;70137;56.482;9.154;2023-07-29T14:04:16;2.50;;;2.30;;
80584;SDS011;70137;56.482;9.154;2023-07-29T14:06:41;2.47;;;2.25;;
80584;SDS011;70137;56.482;9.154;2023-07-29T14:09:06;4.10;;;2.80;;
80584;SDS011;70137;56.482;9.154;2023-07-29T14:11:32;3.08;;;2.75;;
80584;SDS011;70137;56.482;9.154;2023-07-29T14:13:57;2.80;;;2.53;;
80584;SDS011;70137;56.482;9.154;2023-07-29T14:16:22;2.03;;;1.83;;
80584;SDS011;70137;56.482;9.154;2023-07-29T14:18:48;3.85;;;2.55;;
80584;SDS011;70137;56.482;9.154;2023-07-29T14:21:13;2.92;;;2.63;;
80584;SDS011;70137;56.482;9.154;2023-07-29T14:23:38;2.28;;;2.15;;
80584;SDS011;70137;56.482;9.154;2023-07-29T14:26:03;2.33;;;1.83;;
80584;SDS011;70137;56.482;9.154;2023-07-29T14:28:29;2.78;;;2.55;;
80584;SDS011;70137;56.482;9.154;2023-07-29T14:30:55;2.30;;;2.10;;
80584;SDS011;70137;56.482;9.154;2023-07-29T14:33:20;3.40;;;1.83;;
80584;SDS011;70137;56.482;9.154;2023-07-29T14:35:45;3.35;;;2.08;;
80584;SDS011;70137;56.482;9.154;2023-07-29T14:38:10;3.80;;;1.90;;
80584;SDS011;70137;56.482;9.154;2023-07-29T14:40:36;3.13;;;1.90;;
80584;SDS011;70137;56.482;9.154;2023-07-29T14:43:01;1.80;;;1.45;;
80584;SDS011;70137;56.482;9.154;2023-07-29T14:45:26;1.40;;;1.30;;
80584;SDS011;70137;56.482;9.154;2023-07-29T14:47:52;1.50;;;1.40;;
80584;SDS011;70137;56.482;9.154;2023-07-29T14:50:17;2.67;;;2.00;;